Time;durP1;ratioP1;P1;durP2;ratioP2;P2;SDS_P1;SDS_P2;PMS_P1;PMS_P2;Temp;Humidity;BMP_temperature;BMP_pressure;BME280_temperature;BME280_humidity;BME280_pressure;Samples;Min_cycle;Max_cycle;Signal;HPM_P1;HPM_P2
2022/07/23 00:00:55;;;;;;;9.18;5.43;;;12.70;99.90;;;;;;4961670;28;20121;-66
2022/07/23 00:03:20;;;;;;;65.75;7.70;;;12.60;99.90;;;;;;4994988;28;20038;-66
2022/07/23 00:05:46;;;;;;;34.88;6.30;;;12.60;99.90;;;;;;4995108;28;20042;-66
2022/07/23 00:08:12;;;;;;;37.53;6.28;;;12.60;99.90;;;;;;4977382;28;20062;-66
2022/07/23 00:10:38;;;;;;;7.45;4.28;;;12.50;99.90;;;;;;4961450;28;20137;-66
2022/07/23 00:13:04;;;;;;;73.82;7.53;;;12.50;99.90;;;;;;4995099;28;20046;-66
2022/07/23 00:15:30;;;;;;;202.23;14.98;;;12.50;99.90;;;;;;4977653;28;20041;-66
2022/07/23 00:17:56;;;;;;;57.13;7.13;;;12.40;99.90;;;;;;4977701;28;20073;-66
2022/07/23 00:20:22;;;;;;;24.88;7.18;;;12.40;99.90;;;;;;4994697;28;20073;-66
2022/07/23 00:22:53;;;;;;;6.55;3.50;;;12.40;99.90;;;;;;4977430;28;20042;-66
2022/07/23 00:25:20;;;;;;;89.35;8.20;;;12.40;99.90;;;;;;4992398;28;20042;-66
2022/07/23 00:27:46;;;;;;;7.95;3.80;;;12.40;99.90;;;;;;4994800;28;20038;-66
2022/07/23 00:30:13;;;;;;;10.13;5.68;;;12.30;99.90;;;;;;4961285;28;20455;-66
2022/07/23 00:32:49;;;;;;;26.42;6.97;;;12.30;99.90;;;;;;4977244;28;20050;-66
2022/07/23 00:35:16;;;;;;;90.63;8.30;;;12.30;99.90;;;;;;4977041;28;20078;-66
2022/07/23 00:37:42;;;;;;;55.40;3.55;;;12.30;99.90;;;;;;4977487;28;20228;-66
2022/07/23 00:40:09;;;;;;;99.25;7.00;;;12.30;99.90;;;;;;4994335;28;20489;-66
2022/07/23 00:42:35;;;;;;;136.73;8.75;;;12.20;99.90;;;;;;4994546;28;20085;-66
2022/07/23 00:45:01;;;;;;;198.13;12.60;;;12.20;99.90;;;;;;4977078;28;20517;-66
2022/07/23 00:47:27;;;;;;;126.95;7.35;;;12.20;99.90;;;;;;4994398;28;20104;-66
2022/07/23 00:49:53;;;;;;;158.45;10.15;;;12.20;99.90;;;;;;4977051;28;20115;-66
2022/07/23 00:52:19;;;;;;;31.48;4.57;;;12.20;99.90;;;;;;4994311;28;20042;-66
2022/07/23 00:54:45;;;;;;;310.10;17.30;;;12.10;99.90;;;;;;4960592;28;20129;-66
2022/07/23 00:57:11;;;;;;;95.80;6.80;;;12.10;99.90;;;;;;4991778;28;20381;-66
2022/07/23 00:59:39;;;;;;;156.73;9.07;;;12.10;99.90;;;;;;4975561;28;20045;-66
2022/07/23 01:02:05;;;;;;;53.10;6.65;;;12.10;99.90;;;;;;4976893;28;20080;-66
2022/07/23 01:04:31;;;;;;;221.20;16.80;;;12.10;99.90;;;;;;4976560;28;20078;-66
2022/07/23 01:06:57;;;;;;;27.90;5.45;;;12.10;99.90;;;;;;4997128;28;20062;-66
2022/07/23 01:09:24;;;;;;;49.70;7.55;;;12.20;99.90;;;;;;4995753;28;20496;-66
2022/07/23 01:11:50;;;;;;;10.50;5.55;;;12.20;99.90;;;;;;4995754;28;20076;-66
2022/07/23 01:14:18;;;;;;;8.70;5.25;;;12.10;99.90;;;;;;4979465;28;20041;-66
2022/07/23 01:16:46;;;;;;;15.18;7.50;;;12.10;99.90;;;;;;5013235;28;20038;-66
2022/07/23 01:19:13;;;;;;;13.70;7.78;;;12.20;99.90;;;;;;4995930;28;20033;-66
2022/07/23 01:21:41;;;;;;;11.32;6.63;;;12.20;99.90;;;;;;4979798;28;20184;-66
2022/07/23 01:24:09;;;;;;;15.00;8.23;;;12.20;99.90;;;;;;4979384;28;20042;-66
2022/07/23 01:26:35;;;;;;;14.00;7.65;;;12.20;99.90;;;;;;4992859;28;20048;-66
2022/07/23 01:29:01;;;;;;;24.30;10.77;;;12.20;99.90;;;;;;4979397;28;20046;-66
2022/07/23 01:31:28;;;;;;;10.88;5.85;;;12.30;99.90;;;;;;4995372;28;20042;-66
2022/07/23 01:33:54;;;;;;;12.10;7.00;;;12.30;99.90;;;;;;5013056;28;20088;-66
2022/07/23 01:36:20;;;;;;;16.02;7.80;;;12.20;99.90;;;;;;4995558;28;20396;-66
2022/07/23 01:38:45;;;;;;;18.08;8.90;;;12.30;99.90;;;;;;4992383;28;20039;-66
2022/07/23 01:41:11;;;;;;;16.90;9.30;;;12.20;99.90;;;;;;4993188;28;20049;-66
2022/07/23 01:43:37;;;;;;;15.07;9.05;;;12.20;99.90;;;;;;4960022;28;20042;-66
2022/07/23 01:46:03;;;;;;;14.60;8.80;;;12.20;99.90;;;;;;4975950;28;20511;-66
2022/07/23 01:48:29;;;;;;;12.60;7.85;;;12.20;99.90;;;;;;4993272;28;20501;-66
2022/07/23 01:50:55;;;;;;;12.13;8.25;;;12.20;99.90;;;;;;4975609;28;20038;-66
2022/07/23 01:53:21;;;;;;;16.85;9.27;;;12.10;99.90;;;;;;4975914;28;20034;-66
2022/07/23 01:55:47;;;;;;;17.88;10.40;;;12.20;99.90;;;;;;4956883;28;20515;-66
2022/07/23 01:58:13;;;;;;;22.02;9.65;;;12.10;99.90;;;;;;4959819;28;20409;-66
2022/07/23 02:00:39;;;;;;;15.07;8.43;;;12.10;99.90;;;;;;4975522;28;20045;-66
2022/07/23 02:03:05;;;;;;;9.80;6.30;;;12.10;99.90;;;;;;4992935;28;20043;-66
2022/07/23 02:05:31;;;;;;;121.18;15.60;;;12.00;99.90;;;;;;4975710;28;20046;-66
2022/07/23 02:07:58;;;;;;;211.55;15.80;;;12.00;99.90;;;;;;4992673;28;20058;-66
2022/07/23 02:10:25;;;;;;;287.58;22.38;;;12.00;99.90;;;;;;4958646;28;20566;-66
2022/07/23 02:12:51;;;;;;;266.95;17.88;;;11.90;99.90;;;;;;4959164;28;20129;-66
2022/07/23 02:15:18;;;;;;;92.90;8.27;;;11.80;99.90;;;;;;4975512;28;20177;-65
2022/07/23 02:17:43;;;;;;;41.65;5.00;;;11.80;99.90;;;;;;4992733;28;20038;-66
2022/07/23 02:20:11;;;;;;;44.17;5.00;;;11.80;99.90;;;;;;4992605;28;20054;-66
2022/07/23 02:22:38;;;;;;;44.95;6.93;;;11.70;99.90;;;;;;4992668;28;20460;-66
2022/07/23 02:25:05;;;;;;;52.85;6.95;;;11.60;99.90;;;;;;4975325;28;20038;-66
2022/07/23 02:27:31;;;;;;;226.30;16.10;;;11.60;99.90;;;;;;4990551;28;20113;-66
2022/07/23 02:29:57;;;;;;;176.68;11.40;;;11.60;99.90;;;;;;4975376;28;20061;-66
2022/07/23 02:32:24;;;;;;;138.63;8.25;;;11.50;99.90;;;;;;4992499;28;20052;-66
2022/07/23 02:34:50;;;;;;;136.07;7.43;;;11.50;99.90;;;;;;4975120;28;20040;-65
2022/07/23 02:37:16;;;;;;;128.18;8.30;;;11.50;99.90;;;;;;4992373;28;20046;-66
2022/07/23 02:39:42;;;;;;;131.77;8.30;;;11.40;99.90;;;;;;4985615;28;20411;-66
2022/07/23 02:42:08;;;;;;;149.95;7.82;;;11.40;99.90;;;;;;4994422;28;20052;-65
2022/07/23 02:44:35;;;;;;;283.40;16.85;;;11.30;99.90;;;;;;4994932;28;20050;-66
2022/07/23 02:47:01;;;;;;;167.85;10.95;;;11.30;99.90;;;;;;4994382;28;20049;-65
2022/07/23 02:49:27;;;;;;;89.75;10.27;;;11.30;99.90;;;;;;4994618;28;20100;-65
2022/07/23 02:51:53;;;;;;;136.50;11.63;;;11.30;99.90;;;;;;4994226;28;20568;-65
2022/07/23 02:54:19;;;;;;;112.72;9.40;;;11.20;99.90;;;;;;5011774;28;20154;-65
2022/07/23 02:56:45;;;;;;;5.95;4.05;;;11.20;99.90;;;;;;4991854;28;20077;-65
2022/07/23 02:59:11;;;;;;;10.13;5.60;;;11.10;99.90;;;;;;4994314;28;20038;-65
2022/07/23 03:01:37;;;;;;;8.45;3.83;;;11.20;99.90;;;;;;4994065;28;20057;-66
2022/07/23 03:04:03;;;;;;;9.45;2.00;;;11.10;99.90;;;;;;4994360;28;20038;-65
2022/07/23 03:06:29;;;;;;;14.35;2.42;;;11.10;99.90;;;;;;4994065;28;20053;-65
2022/07/23 03:08:55;;;;;;;4.78;2.05;;;11.10;99.90;;;;;;4993919;28;20058;-65
2022/07/23 03:11:21;;;;;;;5.88;3.63;;;11.10;99.90;;;;;;4978051;28;20174;-65
2022/07/23 03:13:47;;;;;;;64.95;7.60;;;11.00;99.90;;;;;;4994419;28;20081;-65
2022/07/23 03:16:13;;;;;;;57.25;7.00;;;11.00;99.90;;;;;;4994316;28;20151;-65
2022/07/23 03:18:39;;;;;;;8.40;3.30;;;11.00;99.90;;;;;;4994112;28;20073;-65
2022/07/23 03:21:05;;;;;;;176.82;12.07;;;10.90;99.90;;;;;;4977785;28;20085;-65
2022/07/23 03:23:31;;;;;;;158.75;12.18;;;10.90;99.90;;;;;;5014234;28;20038;-65
2022/07/23 03:25:57;;;;;;;23.33;4.57;;;10.80;99.90;;;;;;4995685;28;20038;-65
2022/07/23 03:28:23;;;;;;;10.25;5.13;;;10.80;99.90;;;;;;4981564;28;20515;-65
2022/07/23 03:30:48;;;;;;;6.68;4.13;;;10.80;99.90;;;;;;5015426;28;20080;-65
2022/07/23 03:33:16;;;;;;;8.27;4.60;;;10.80;99.90;;;;;;4998596;28;20053;-65
2022/07/23 03:35:43;;;;;;;13.20;5.38;;;10.80;99.90;;;;;;5016276;28;20029;-65
2022/07/23 03:38:09;;;;;;;11.50;5.97;;;10.70;99.90;;;;;;5016137;28;20060;-65
2022/07/23 03:40:35;;;;;;;38.83;4.68;;;10.70;99.90;;;;;;5015739;28;20037;-65
2022/07/23 03:43:01;;;;;;;182.38;13.20;;;10.70;99.90;;;;;;4998501;28;20051;-65
2022/07/23 03:45:27;;;;;;;130.35;8.57;;;10.70;99.90;;;;;;4998267;28;20129;-65
2022/07/23 03:47:53;;;;;;;339.67;19.63;;;10.60;99.90;;;;;;5014967;28;20048;-65
2022/07/23 03:50:19;;;;;;;37.60;3.33;;;10.60;99.90;;;;;;4997719;28;20037;-65
2022/07/23 03:52:45;;;;;;;21.00;2.80;;;10.60;99.90;;;;;;4997168;28;20077;-65
2022/07/23 03:55:11;;;;;;;111.85;7.47;;;10.50;99.90;;;;;;5014349;28;20076;-65
2022/07/23 03:57:37;;;;;;;161.57;8.95;;;10.50;99.90;;;;;;5013309;28;20060;-65
2022/07/23 04:00:06;;;;;;;151.65;8.65;;;10.50;99.90;;;;;;4981320;28;20480;-65
2022/07/23 04:02:33;;;;;;;261.23;14.63;;;10.50;99.90;;;;;;4997384;28;20104;-65
2022/07/23 04:05:00;;;;;;;107.35;6.63;;;10.50;99.90;;;;;;4980896;28;20041;-65
2022/07/23 04:07:25;;;;;;;187.02;10.68;;;10.50;99.90;;;;;;4980461;28;20500;-65
2022/07/23 04:09:52;;;;;;;134.40;7.80;;;10.60;99.90;;;;;;4997055;28;20053;-65
2022/07/23 04:12:18;;;;;;;26.33;4.25;;;10.60;99.90;;;;;;4996910;28;20048;-65
2022/07/23 04:14:44;;;;;;;27.35;4.22;;;10.60;99.90;;;;;;5014632;28;20072;-65
2022/07/23 04:17:11;;;;;;;24.40;5.13;;;10.60;99.90;;;;;;4997303;28;20104;-65
2022/07/23 04:19:39;;;;;;;25.35;6.68;;;10.70;99.90;;;;;;4996932;28;20038;-65
2022/07/23 04:22:06;;;;;;;43.70;4.57;;;10.70;99.90;;;;;;4997088;28;20070;-65
2022/07/23 04:24:32;;;;;;;14.15;2.92;;;10.80;99.90;;;;;;5014577;28;20077;-65
2022/07/23 04:26:58;;;;;;;10.02;3.38;;;10.80;99.90;;;;;;5012018;28;20046;-65
2022/07/23 04:29:24;;;;;;;15.88;6.03;;;10.80;99.90;;;;;;4996737;28;20195;-65
2022/07/23 04:31:51;;;;;;;9.98;5.72;;;10.90;99.90;;;;;;4980530;28;20042;-65
2022/07/23 04:34:17;;;;;;;16.52;7.57;;;10.90;99.90;;;;;;5013888;28;20034;-65
2022/07/23 04:36:43;;;;;;;14.32;6.72;;;10.90;99.90;;;;;;5014015;28;20167;-65
2022/07/23 04:39:09;;;;;;;21.85;9.30;;;11.00;99.90;;;;;;4974628;28;20054;-65
2022/07/23 04:41:34;;;;;;;8.88;5.55;;;11.10;99.90;;;;;;4995037;28;20432;-65
2022/07/23 04:44:01;;;;;;;9.90;6.32;;;11.10;99.90;;;;;;4961172;28;20048;-65
2022/07/23 04:46:27;;;;;;;11.70;5.82;;;11.20;99.90;;;;;;4976790;28;20038;-65
2022/07/23 04:48:54;;;;;;;13.32;7.25;;;11.30;99.90;;;;;;4976960;28;20104;-65
2022/07/23 04:51:21;;;;;;;10.20;6.53;;;11.40;99.90;;;;;;4994600;28;20125;-65
2022/07/23 04:53:47;;;;;;;9.40;6.35;;;11.50;99.90;;;;;;4994391;28;20543;-66
2022/07/23 04:56:12;;;;;;;9.63;6.22;;;11.50;99.90;;;;;;4958507;28;20129;-65
2022/07/23 04:58:38;;;;;;;8.10;4.95;;;11.60;99.90;;;;;;4976695;28;20129;-66
2022/07/23 05:01:04;;;;;;;8.55;5.00;;;11.70;99.90;;;;;;4994248;28;20046;-65
2022/07/23 05:03:30;;;;;;;8.23;5.70;;;11.80;99.90;;;;;;4976644;28;20108;-65
2022/07/23 05:05:56;;;;;;;14.02;7.05;;;11.80;99.90;;;;;;4976778;28;20070;-65
2022/07/23 05:08:22;;;;;;;10.32;6.82;;;12.00;99.90;;;;;;4993886;28;20137;-65
2022/07/23 05:10:49;;;;;;;13.43;7.45;;;12.10;99.90;;;;;;4976388;28;20046;-66
2022/07/23 05:13:16;;;;;;;16.05;8.30;;;12.20;99.90;;;;;;4960289;28;20583;-66
2022/07/23 05:15:42;;;;;;;14.38;7.60;;;12.30;99.90;;;;;;4993880;28;20281;-66
2022/07/23 05:18:08;;;;;;;10.00;6.95;;;12.40;99.90;;;;;;4976314;28;20050;-66
2022/07/23 05:20:34;;;;;;;13.25;7.57;;;12.50;99.90;;;;;;4993687;28;20117;-66
2022/07/23 05:23:00;;;;;;;12.68;7.28;;;12.60;99.90;;;;;;4976234;28;20121;-66
2022/07/23 05:25:26;;;;;;;11.52;6.82;;;12.70;99.90;;;;;;4991436;28;20389;-66
2022/07/23 05:27:52;;;;;;;12.68;7.75;;;12.90;99.90;;;;;;4993469;28;20049;-66
2022/07/23 05:30:18;;;;;;;10.48;7.20;;;13.00;99.90;;;;;;4976287;28;20050;-66
2022/07/23 05:32:44;;;;;;;13.48;8.25;;;13.10;99.90;;;;;;4993264;28;20049;-66
2022/07/23 05:35:11;;;;;;;10.77;7.78;;;13.20;99.90;;;;;;4993687;28;20042;-66
2022/07/23 05:37:37;;;;;;;11.73;7.03;;;13.40;99.90;;;;;;4976207;28;20038;-66
2022/07/23 05:40:07;;;;;;;10.90;6.57;;;13.50;99.90;;;;;;4989269;28;20447;-66
2022/07/23 05:42:34;;;;;;;11.20;7.18;;;13.60;99.90;;;;;;4995239;28;20049;-66
2022/07/23 05:45:01;;;;;;;12.48;7.68;;;13.80;99.90;;;;;;5012288;28;20104;-66
2022/07/23 05:47:27;;;;;;;10.52;7.03;;;13.90;99.90;;;;;;4979212;28;20132;-66
2022/07/23 05:49:53;;;;;;;9.38;6.85;;;14.00;99.90;;;;;;5012995;28;20568;-66
2022/07/23 05:52:19;;;;;;;9.43;5.75;;;14.20;99.90;;;;;;4995241;28;20046;-66
2022/07/23 05:54:45;;;;;;;11.35;6.25;;;14.30;99.90;;;;;;5012824;28;20404;-68
2022/07/23 05:57:10;;;;;;;7.90;5.50;;;14.40;99.90;;;;;;5010249;28;20038;-72
2022/07/23 05:59:36;;;;;;;11.40;6.28;;;14.50;99.90;;;;;;5001019;28;20044;-73
2022/07/23 06:02:03;;;;;;;7.60;5.38;;;14.60;99.90;;;;;;4996950;28;20050;-73
2022/07/23 06:04:30;;;;;;;9.25;5.22;;;14.80;99.90;;;;;;4995095;28;20203;-70
2022/07/23 06:06:55;;;;;;;8.32;4.68;;;14.90;99.90;;;;;;5013119;28;20574;-71
2022/07/23 06:09:21;;;;;;;7.32;5.07;;;15.00;99.90;;;;;;4995616;28;20088;-67
2022/07/23 06:11:47;;;;;;;6.72;4.75;;;15.10;99.90;;;;;;5013104;28;20042;-67
2022/07/23 06:14:13;;;;;;;6.32;4.28;;;15.20;99.90;;;;;;5013030;28;20049;-68
2022/07/23 06:16:39;;;;;;;7.30;4.50;;;15.40;99.90;;;;;;4995720;28;20038;-68
2022/07/23 06:19:05;;;;;;;7.15;4.53;;;15.50;99.90;;;;;;4995633;28;20034;-68
2022/07/23 06:21:30;;;;;;;5.93;4.05;;;15.70;99.90;;;;;;4995628;28;20046;-67
2022/07/23 06:23:56;;;;;;;8.23;4.82;;;15.80;99.90;;;;;;5013178;28;20109;-68
2022/07/23 06:26:23;;;;;;;4.60;3.83;;;15.90;99.90;;;;;;4975323;28;20045;-67
2022/07/23 06:28:53;;;;;;;5.53;3.83;;;16.00;99.90;;;;;;5002741;28;20029;-67
2022/07/23 06:31:19;;;;;;;4.85;2.97;;;16.10;99.90;;;;;;4995309;28;20479;-67
2022/07/23 06:33:45;;;;;;;3.17;2.15;;;16.30;99.90;;;;;;4995567;28;20036;-67
2022/07/23 06:36:11;;;;;;;4.88;2.03;;;16.60;99.90;;;;;;4989594;28;20119;-67
2022/07/23 06:38:37;;;;;;;2.17;1.38;;;16.70;99.90;;;;;;4981155;28;20077;-67
2022/07/23 06:41:03;;;;;;;3.20;1.35;;;16.90;99.90;;;;;;4995281;28;20050;-67
2022/07/23 06:43:31;;;;;;;2.33;1.20;;;17.10;99.90;;;;;;4995065;28;20046;-67
2022/07/23 06:45:56;;;;;;;3.60;1.40;;;17.30;99.90;;;;;;5012959;28;20045;-67
2022/07/23 06:48:22;;;;;;;3.17;1.17;;;17.50;99.90;;;;;;4995198;28;20133;-66
2022/07/23 06:50:48;;;;;;;3.80;1.30;;;17.80;99.90;;;;;;4995651;28;20060;-66
2022/07/23 06:53:14;;;;;;;2.83;1.50;;;18.00;99.90;;;;;;4994928;28;20041;-66
2022/07/23 06:55:40;;;;;;;3.88;1.20;;;18.10;99.90;;;;;;4993004;28;20077;-66
2022/07/23 06:58:06;;;;;;;3.00;1.40;;;18.20;99.90;;;;;;5016628;28;20041;-66
2022/07/23 07:00:32;;;;;;;1.48;0.98;;;18.40;99.90;;;;;;4983328;28;20526;-67
2022/07/23 07:02:58;;;;;;;2.55;1.05;;;18.60;99.90;;;;;;4983145;28;20103;-66
2022/07/23 07:05:27;;;;;;;3.03;1.30;;;18.80;99.90;;;;;;4999348;28;20050;-67
2022/07/23 07:07:54;;;;;;;2.97;1.08;;;18.80;99.90;;;;;;4988470;28;20058;-66
2022/07/23 07:10:20;;;;;;;1.58;0.60;;;18.90;99.90;;;;;;4979677;28;20129;-65
2022/07/23 07:12:46;;;;;;;1.20;0.40;;;19.00;99.90;;;;;;4997000;28;20061;-65
2022/07/23 07:15:12;;;;;;;1.98;0.55;;;19.10;99.90;;;;;;4979563;28;20034;-65
2022/07/23 07:17:39;;;;;;;1.92;0.65;;;19.00;99.90;;;;;;4979528;28;20121;-65
2022/07/23 07:20:05;;;;;;;2.15;0.75;;;18.90;99.90;;;;;;4979670;28;20125;-65
2022/07/23 07:22:31;;;;;;;2.65;0.60;;;18.90;99.90;;;;;;4979644;28;20050;-66
2022/07/23 07:24:57;;;;;;;1.23;0.43;;;19.00;99.90;;;;;;4979524;28;20436;-65
2022/07/23 07:27:23;;;;;;;1.75;0.50;;;19.10;99.90;;;;;;4977428;28;20485;-65
2022/07/23 07:29:49;;;;;;;4.07;0.80;;;19.30;99.90;;;;;;4979425;28;20632;-66
2022/07/23 07:32:15;;;;;;;2.42;0.68;;;19.50;99.90;;;;;;4980069;28;20052;-67
2022/07/23 07:34:41;;;;;;;2.20;0.63;;;19.90;99.90;;;;;;4979644;28;20366;-65
2022/07/23 07:37:06;;;;;;;1.05;0.50;;;20.30;99.90;;;;;;4963426;28;20432;-65
2022/07/23 07:39:32;;;;;;;2.22;0.70;;;20.40;99.90;;;;;;4987544;28;20613;-66
2022/07/23 07:41:58;;;;;;;1.00;0.40;;;20.40;99.90;;;;;;4959821;28;20122;-65
2022/07/23 07:44:24;;;;;;;0.85;0.43;;;20.20;99.90;;;;;;4959869;28;20046;-64
2022/07/23 07:46:50;;;;;;;1.75;0.70;;;20.20;99.90;;;;;;4977195;28;20047;-64
2022/07/23 07:49:19;;;;;;;1.65;0.50;;;20.30;99.90;;;;;;4959520;28;20047;-65
2022/07/23 07:51:45;;;;;;;1.98;0.40;;;20.50;99.90;;;;;;4959915;28;20089;-65
2022/07/23 07:54:11;;;;;;;1.60;0.50;;;20.50;99.90;;;;;;4959758;28;20031;-65
2022/07/23 07:56:37;;;;;;;3.55;0.95;;;20.70;99.90;;;;;;4974577;28;20039;-66
2022/07/23 07:59:03;;;;;;;1.50;0.50;;;20.90;99.90;;;;;;4959723;28;20035;-66
2022/07/23 08:01:29;;;;;;;2.30;0.45;;;21.30;99.90;;;;;;4976774;28;20050;-66
2022/07/23 08:03:55;;;;;;;3.08;0.70;;;21.40;99.90;;;;;;4976581;28;20043;-66
2022/07/23 08:06:21;;;;;;;2.08;0.60;;;21.50;99.90;;;;;;4976681;28;20047;-66
2022/07/23 08:08:47;;;;;;;4.50;0.75;;;21.60;99.90;;;;;;4993662;28;20058;-65
2022/07/23 08:11:13;;;;;;;2.05;0.52;;;21.80;99.90;;;;;;4978572;28;20050;-66
2022/07/23 08:13:38;;;;;;;1.45;0.40;;;22.10;99.90;;;;;;4978591;28;20080;-65
2022/07/23 08:16:04;;;;;;;1.52;0.40;;;22.30;99.90;;;;;;4962319;28;20035;-66
2022/07/23 08:18:30;;;;;;;0.77;0.45;;;22.10;99.90;;;;;;4978488;28;20492;-65
2022/07/23 08:20:56;;;;;;;1.42;0.40;;;21.70;99.90;;;;;;4978423;28;20037;-64
2022/07/23 08:23:22;;;;;;;2.08;0.40;;;21.40;99.90;;;;;;4978495;28;20432;-65
2022/07/23 08:25:48;;;;;;;2.92;0.60;;;21.10;99.90;;;;;;4976051;28;20061;-65
2022/07/23 08:28:15;;;;;;;2.00;0.70;;;20.90;99.90;;;;;;4978534;28;20635;-65
2022/07/23 08:30:42;;;;;;;2.40;0.70;;;20.60;99.90;;;;;;4978499;28;20112;-65
2022/07/23 08:33:12;;;;;;;1.25;0.50;;;20.40;99.90;;;;;;4977983;28;20057;-63
2022/07/23 08:35:47;;;;;;;1.88;0.55;;;20.20;99.90;;;;;;4995511;28;20085;-64
2022/07/23 08:38:15;;;;;;;0.90;0.43;;;20.00;99.90;;;;;;4978087;28;20070;-64
2022/07/23 08:40:44;;;;;;;2.30;0.68;;;19.90;99.90;;;;;;4977927;28;20041;-62
2022/07/23 08:43:15;;;;;;;1.55;0.60;;;19.90;99.90;;;;;;4977944;28;20042;-65
2022/07/23 08:45:46;;;;;;;1.60;0.70;;;20.00;99.90;;;;;;4978011;28;20449;-64
2022/07/23 08:48:20;;;;;;;0.63;0.38;;;20.20;99.90;;;;;;4978093;28;20046;-64
2022/07/23 08:50:49;;;;;;;1.35;0.60;;;20.40;99.90;;;;;;4962096;28;20049;-66
2022/07/23 08:53:17;;;;;;;1.65;0.60;;;20.30;99.90;;;;;;4961156;28;20081;-65
2022/07/23 08:55:47;;;;;;;2.05;0.60;;;20.40;99.90;;;;;;4958536;28;20050;-64
2022/07/23 08:58:14;;;;;;;1.73;0.55;;;20.50;99.90;;;;;;4976996;28;20045;-64
2022/07/23 09:00:43;;;;;;;2.35;0.73;;;20.50;99.90;;;;;;4993878;28;20038;-65
2022/07/23 09:03:18;;;;;;;2.92;1.05;;;20.40;99.90;;;;;;4974598;28;20612;-65
2022/07/23 09:05:44;;;;;;;1.48;0.70;;;20.40;99.90;;;;;;4994979;28;20050;-64
2022/07/23 09:08:16;;;;;;;1.25;0.60;;;20.30;99.90;;;;;;4990576;28;20408;-65
2022/07/23 09:10:57;;;;;;;1.98;0.65;;;20.30;99.90;;;;;;4980943;28;20187;-65
2022/07/23 09:13:29;;;;;;;3.72;0.63;;;20.30;99.90;;;;;;4996835;28;20500;-65
2022/07/23 09:15:59;;;;;;;2.40;0.70;;;20.70;99.90;;;;;;5014344;28;20065;-65
2022/07/23 09:18:30;;;;;;;1.75;0.70;;;20.90;99.90;;;;;;4996466;28;20050;-64
2022/07/23 09:21:10;;;;;;;1.58;0.80;;;21.00;99.90;;;;;;4995730;28;20049;-65
2022/07/23 09:23:40;;;;;;;1.92;0.70;;;21.00;99.90;;;;;;5014116;28;20033;-65
2022/07/23 09:26:32;;;;;;;1.45;0.80;;;21.00;99.90;;;;;;4978048;28;20045;-65
2022/07/23 09:29:05;;;;;;;1.83;0.75;;;21.00;99.90;;;;;;4996837;28;20095;-65
2022/07/23 09:31:52;;;;;;;1.40;0.80;;;21.00;99.90;;;;;;4996693;28;20041;-65
2022/07/23 09:34:22;;;;;;;1.45;0.80;;;21.20;99.90;;;;;;4965141;28;20037;-65
2022/07/23 09:36:49;;;;;;;;;;;21.30;99.90;;;;;;5014406;28;20042;-65
2022/07/23 09:39:17;;;;;;;1.95;0.80;;;21.50;99.90;;;;;;4970567;28;20261;-65
2022/07/23 09:41:46;;;;;;;2.28;0.85;;;21.70;99.90;;;;;;4957285;28;20046;-65
2022/07/23 09:44:16;;;;;;;1.42;0.80;;;21.70;99.90;;;;;;4976978;28;20450;-64
2022/07/23 09:46:43;;;;;;;3.00;0.98;;;21.70;99.90;;;;;;4976894;28;20038;-65
2022/07/23 09:49:22;;;;;;;1.92;1.00;;;21.70;99.90;;;;;;4994209;28;20528;-65
2022/07/23 09:51:51;;;;;;;2.28;0.90;;;21.90;99.90;;;;;;4993555;28;20508;-65
2022/07/23 09:54:23;;;;;;;2.33;1.08;;;22.00;99.90;;;;;;4959971;28;20042;-65
2022/07/23 09:56:50;;;;;;;2.22;0.80;;;22.20;99.90;;;;;;4973445;28;20086;-65
2022/07/23 09:59:18;;;;;;;1.88;0.80;;;22.40;99.90;;;;;;4975649;28;20045;-65
2022/07/23 10:01:45;;;;;;;4.72;1.27;;;22.60;99.90;;;;;;4975779;28;20082;-66
2022/07/23 10:04:12;;;;;;;3.17;1.00;;;22.60;99.90;;;;;;4975828;28;20124;-65
2022/07/23 10:06:40;;;;;;;3.47;1.20;;;22.40;99.90;;;;;;4993420;28;20064;-65
2022/07/23 10:09:08;;;;;;;2.15;0.70;;;22.20;99.90;;;;;;4995269;28;20536;-65
2022/07/23 10:11:35;;;;;;;3.15;1.10;;;22.40;99.90;;;;;;4994803;28;20108;-65
2022/07/23 10:14:04;;;;;;;1.50;0.90;;;22.50;99.90;;;;;;4995146;28;20042;-64
2022/07/23 10:16:30;;;;;;;3.15;1.15;;;22.50;99.90;;;;;;4994936;28;20137;-65
2022/07/23 10:18:56;;;;;;;2.47;1.13;;;22.40;99.90;;;;;;5012385;28;20044;-65
2022/07/23 10:21:40;;;;;;;3.63;1.10;;;22.50;99.90;;;;;;4994933;28;20034;-64
2022/07/23 10:24:29;;;;;;;4.00;1.08;;;22.40;99.90;;;;;;4994999;28;20490;-64
2022/07/23 10:27:21;;;;;;;2.05;1.10;;;22.20;99.90;;;;;;5009621;28;20045;-66
2022/07/23 10:30:25;;;;;;;2.83;1.23;;;21.90;99.90;;;;;;4994887;28;20042;-65
2022/07/23 10:32:57;;;;;;;2.30;1.33;;;22.00;99.90;;;;;;4988118;28;20049;-65
2022/07/23 10:35:53;;;;;;;3.42;1.50;;;22.10;99.90;;;;;;4978320;28;20550;-66
2022/07/23 10:38:25;;;;;;;2.50;1.10;;;22.20;99.90;;;;;;4978599;28;20046;-64
2022/07/23 10:41:04;;;;;;;2.53;1.15;;;22.30;99.90;;;;;;4974976;28;20054;-65
2022/07/23 10:43:31;;;;;;;2.55;1.25;;;22.20;99.90;;;;;;4992300;28;20030;-65
2022/07/23 10:46:25;;;;;;;3.13;1.10;;;22.20;99.90;;;;;;4959134;28;20513;-65
2022/07/23 10:49:27;;;;;;;3.60;1.10;;;22.40;99.90;;;;;;4975324;28;20412;-65
2022/07/23 10:52:14;;;;;;;3.17;1.30;;;22.60;99.90;;;;;;4974831;28;20305;-66
2022/07/23 10:54:43;;;;;;;2.22;1.10;;;22.90;99.90;;;;;;4975198;28;20038;-65
2022/07/23 10:57:12;;;;;;;2.63;1.45;;;23.30;99.90;;;;;;4972264;28;20047;-65
2022/07/23 11:00:12;;;;;;;1.70;1.20;;;23.70;99.90;;;;;;4992456;28;20042;-65
2022/07/23 11:02:39;;;;;;;2.20;1.05;;;23.90;99.90;;;;;;4992186;28;20616;-65
2022/07/23 11:05:08;;;;;;;2.00;1.40;;;23.70;99.40;;;;;;4974919;28;20097;-65
2022/07/23 11:07:36;;;;;;;3.80;1.48;;;23.60;99.60;;;;;;4991985;28;20093;-65
2022/07/23 11:10:04;;;;;;;3.17;1.30;;;23.50;99.40;;;;;;4959011;28;20069;-65
2022/07/23 11:12:30;;;;;;;2.45;1.08;;;23.50;99.00;;;;;;4958585;28;20085;-65
2022/07/23 11:15:10;;;;;;;1.88;0.95;;;23.40;98.00;;;;;;4974667;28;20073;-65
2022/07/23 11:18:01;;;;;;;3.58;1.30;;;23.40;98.50;;;;;;4974988;28;20373;-65
2022/07/23 11:20:27;;;;;;;2.75;1.40;;;23.40;99.90;;;;;;4958641;28;20038;-65
2022/07/23 11:22:58;;;;;;;2.30;1.10;;;23.50;99.90;;;;;;4992019;28;20129;-66
2022/07/23 11:25:29;;;;;;;2.38;1.30;;;23.70;99.90;;;;;;4973524;28;20053;-64
2022/07/23 11:28:17;;;;;;;2.40;1.45;;;23.80;99.50;;;;;;4958396;28;20050;-65
2022/07/23 11:30:45;;;;;;;3.35;1.30;;;23.50;98.20;;;;;;4974707;28;20096;-65
2022/07/23 11:33:11;;;;;;;3.40;1.40;;;23.40;99.40;;;;;;4958563;28;20042;-65
2022/07/23 11:35:39;;;;;;;3.08;1.38;;;23.70;99.00;;;;;;4974893;28;20051;-66
2022/07/23 11:38:16;;;;;;;2.25;1.58;;;23.90;98.00;;;;;;4957736;28;20076;-65
2022/07/23 11:40:50;;;;;;;2.65;1.30;;;23.80;96.80;;;;;;5010527;28;20038;-65
2022/07/23 11:43:16;;;;;;;4.47;1.83;;;23.50;98.20;;;;;;4994452;28;20049;-66
2022/07/23 11:45:50;;;;;;;3.10;1.75;;;23.30;99.30;;;;;;4997766;28;20041;-66
2022/07/23 11:48:22;;;;;;;2.75;1.35;;;23.30;98.60;;;;;;4997750;28;20064;-65
2022/07/23 11:50:49;;;;;;;2.88;1.30;;;23.40;99.30;;;;;;4981374;28;20049;-65
2022/07/23 11:53:26;;;;;;;3.65;1.60;;;23.60;99.20;;;;;;4997558;28;20135;-65
2022/07/23 11:55:52;;;;;;;3.22;1.88;;;23.90;99.80;;;;;;5012817;28;20038;-65
2022/07/23 11:58:18;;;;;;;4.22;1.90;;;24.00;98.00;;;;;;4981184;28;20129;-65
2022/07/23 12:00:44;;;;;;;2.95;1.60;;;24.00;98.40;;;;;;4997379;28;20049;-65
2022/07/23 12:03:10;;;;;;;3.97;1.55;;;24.20;98.10;;;;;;5014708;28;20050;-64
2022/07/23 12:05:38;;;;;;;3.05;1.40;;;24.20;98.30;;;;;;5011896;28;20119;-65
2022/07/23 12:08:07;;;;;;;3.03;1.90;;;23.90;98.00;;;;;;5012548;28;20061;-65
2022/07/23 12:10:38;;;;;;;2.50;1.55;;;23.80;97.10;;;;;;5014652;28;20069;-65
2022/07/23 12:13:07;;;;;;;2.75;1.50;;;23.80;97.90;;;;;;4980332;28;20133;-65
2022/07/23 12:15:39;;;;;;;3.17;1.25;;;23.90;96.30;;;;;;4997335;28;20290;-65
2022/07/23 12:18:07;;;;;;;3.60;1.77;;;23.80;96.10;;;;;;4997237;28;20169;-65
2022/07/23 12:20:38;;;;;;;2.00;1.70;;;23.70;97.20;;;;;;4997318;28;20403;-65
2022/07/23 12:23:06;;;;;;;2.05;1.52;;;23.70;97.60;;;;;;5014562;28;20045;-65
2022/07/23 12:25:41;;;;;;;3.33;1.55;;;23.60;97.90;;;;;;5012128;28;20057;-65
2022/07/23 12:28:15;;;;;;;2.42;1.30;;;23.60;97.60;;;;;;5014307;28;20038;-66
2022/07/23 12:30:49;;;;;;;2.67;1.90;;;23.60;99.30;;;;;;5013184;28;20129;-65
2022/07/23 12:33:24;;;;;;;2.15;1.40;;;23.80;99.40;;;;;;4996728;28;20050;-65
2022/07/23 12:35:53;;;;;;;3.88;1.95;;;23.80;98.30;;;;;;4997001;28;20037;-65
2022/07/23 12:38:21;;;;;;;4.60;1.63;;;23.70;99.90;;;;;;5014102;28;20489;-65
2022/07/23 12:41:08;;;;;;;3.00;1.95;;;23.80;99.20;;;;;;4961807;28;20038;-65
2022/07/23 12:43:37;;;;;;;3.08;1.88;;;23.80;97.30;;;;;;4977031;28;20045;-65
2022/07/23 12:46:10;;;;;;;3.13;1.80;;;23.60;96.90;;;;;;4961121;28;20097;-64